createdAt,value
2022-09-03T00:00:41.565Z,101354.97
2022-09-03T00:01:50.785Z,101353.31
2022-09-03T00:02:59.847Z,101336.34
2022-09-03T00:04:08.942Z,101359.97
2022-09-03T00:05:19.588Z,101352.34
2022-09-03T00:06:26.270Z,101346.34
2022-09-03T00:07:35.920Z,101345.09
2022-09-03T00:08:44.333Z,101351.34
2022-09-03T00:09:54.733Z,101348.84
2022-09-03T00:10:59.904Z,101353.41
2022-09-03T00:12:09.754Z,101355.50
2022-09-03T00:13:16.415Z,101345.78
2022-09-03T00:14:24.235Z,101349.72
2022-09-03T00:15:27.248Z,101353.47
2022-09-03T00:16:35.293Z,101347.47
2022-09-03T00:17:41.276Z,101351.44
2022-09-03T00:18:48.605Z,101346.06
2022-09-03T00:19:55.838Z,101352.47
2022-09-03T00:21:08.359Z,101354.56
2022-09-03T00:22:15.733Z,101355.00
2022-09-03T00:23:22.876Z,101349.81
2022-09-03T00:24:30.069Z,101351.91
2022-09-03T00:25:40.602Z,101349.44
2022-09-03T00:26:46.907Z,101352.78
2022-09-03T00:27:55.304Z,101343.88
2022-09-03T00:29:03.669Z,101341.19
2022-09-03T00:30:11.221Z,101343.25
2022-09-03T00:31:20.656Z,101339.16
2022-09-03T00:32:29.424Z,101347.44
2022-09-03T00:33:33.836Z,101346.84
2022-09-03T00:34:41.449Z,101347.06
2022-09-03T00:35:47.956Z,101346.44
2022-09-03T00:36:51.240Z,101349.13
2022-09-03T00:37:54.125Z,101350.41
2022-09-03T00:38:59.087Z,101349.59
2022-09-03T00:40:03.009Z,101348.97
2022-09-03T00:41:16.828Z,101345.44
2022-09-03T00:42:31.911Z,101342.97
2022-09-03T00:43:49.990Z,101343.19
2022-09-03T00:45:11.767Z,101341.78
2022-09-03T00:46:23.036Z,101341.16
2022-09-03T00:47:31.488Z,101343.00
2022-09-03T00:48:48.258Z,101338.91
2022-09-03T00:50:01.730Z,101347.19
2022-09-03T00:51:16.970Z,101342.03
2022-09-03T00:52:33.621Z,101340.38
2022-09-03T00:53:44.650Z,101345.97
2022-09-03T00:54:53.220Z,101343.50
2022-09-03T00:55:59.620Z,101344.53
2022-09-03T00:57:25.646Z,101344.72
2022-09-03T00:58:44.919Z,101340.63
2022-09-03T00:59:57.446Z,101341.28
2022-09-03T01:01:01.860Z,101347.25
2022-09-03T01:02:13.079Z,101347.47
2022-09-03T01:03:26.748Z,101347.69
2022-09-03T01:04:41.809Z,101345.22
2022-09-03T01:06:03.390Z,101344.59
2022-09-03T01:07:15.876Z,101348.56
2022-09-03T01:08:32.920Z,101351.25
2022-09-03T01:09:49.102Z,101345.25
2022-09-03T01:11:01.382Z,101347.31
2022-09-03T01:12:14.741Z,101347.31
2022-09-03T01:13:23.547Z,101352.50
2022-09-03T01:14:39.139Z,101349.41
2022-09-03T01:15:49.983Z,101348.81
2022-09-03T01:16:57.238Z,101348.19
2022-09-03T01:18:15.331Z,101349.22
2022-09-03T01:19:45.876Z,101346.94
2022-09-03T01:20:59.760Z,101342.00
2022-09-03T01:22:21.091Z,101343.03
2022-09-03T01:23:58.033Z,101335.34
2022-09-03T01:25:12.043Z,101337.47
2022-09-03T01:26:30.225Z,101330.63
2022-09-03T01:27:43.944Z,101334.59
2022-09-03T01:29:01.560Z,101334.78
2022-09-03T01:30:06.688Z,101334.19
2022-09-03T01:31:21.297Z,101346.16
2022-09-03T01:32:29.548Z,101333.78
2022-09-03T01:33:38.739Z,101332.09
2022-09-03T01:34:53.887Z,101332.31
2022-09-03T01:36:09.433Z,101333.38
2022-09-03T01:37:20.370Z,101336.72
2022-09-03T01:38:32.405Z,101334.59
2022-09-03T01:39:47.040Z,101334.00
2022-09-03T01:41:21.555Z,101332.13
2022-09-03T01:42:34.829Z,101339.41
2022-09-03T01:43:47.941Z,101330.72
2022-09-03T01:45:22.174Z,101338.78
2022-09-03T01:46:26.556Z,101331.94
2022-09-03T01:47:39.284Z,101337.53
2022-09-03T01:48:46.281Z,101334.03
2022-09-03T01:49:57.935Z,101337.75
2022-09-03T01:51:11.124Z,101333.41
2022-09-03T01:52:17.097Z,101337.13
2022-09-03T01:53:41.899Z,101335.69
2022-09-03T01:55:02.343Z,101339.41
2022-09-03T01:56:21.102Z,101325.59
2022-09-03T01:57:50.229Z,101331.78
2022-09-03T01:59:01.864Z,101338.19
2022-09-03T02:00:10.640Z,101339.22
2022-09-03T02:01:23.760Z,101333.25
2022-09-03T02:02:27.535Z,101328.91
2022-09-03T02:03:40.871Z,101333.47
2022-09-03T02:04:43.541Z,101335.31
2022-09-03T02:05:46.986Z,101337.38
2022-09-03T02:06:49.263Z,101333.06
2022-09-03T02:07:57.887Z,101331.38
2022-09-03T02:08:59.872Z,101334.28
2022-09-03T02:10:06.091Z,101326.44
2022-09-03T02:11:11.501Z,101331.81
2022-09-03T02:12:18.715Z,101325.81
2022-09-03T02:13:27.274Z,101334.94
2022-09-03T02:14:30.268Z,101326.88
2022-09-03T02:15:38.544Z,101340.50
2022-09-03T02:16:40.564Z,101326.44
2022-09-03T02:17:46.683Z,101337.22
2022-09-03T02:18:54.238Z,101341.13
2022-09-03T02:19:57.915Z,101327.69
2022-09-03T02:21:01.264Z,101334.09
2022-09-03T02:22:05.159Z,101332.47
2022-09-03T02:23:07.309Z,101335.16
2022-09-03T02:24:10.543Z,101338.06
2022-09-03T02:25:13.055Z,101328.31
2022-09-03T02:26:20.267Z,101326.69
2022-09-03T02:27:22.403Z,101335.56
2022-09-03T02:28:27.504Z,101324.00
2022-09-03T02:29:29.729Z,101329.59
2022-09-03T02:30:34.183Z,101329.78
2022-09-03T02:31:36.521Z,101327.91
2022-09-03T02:32:39.718Z,101331.66
2022-09-03T02:33:46.322Z,101325.44
2022-09-03T02:34:48.396Z,101334.75
2022-09-03T02:35:52.065Z,101332.06
2022-09-03T02:36:54.543Z,101331.22
2022-09-03T02:37:57.513Z,101330.41
2022-09-03T02:38:59.474Z,101334.13
2022-09-03T02:40:06.290Z,101345.09
2022-09-03T02:41:08.355Z,101331.66
2022-09-03T02:42:13.672Z,101330.00
2022-09-03T02:43:20.248Z,101329.19
2022-09-03T02:44:32.533Z,101333.94
2022-09-03T02:45:39.773Z,101325.25
2022-09-03T02:46:46.371Z,101330.63
2022-09-03T02:47:52.518Z,101326.28
2022-09-03T02:48:56.002Z,101322.78
2022-09-03T02:49:57.989Z,101327.53
2022-09-03T02:51:01.093Z,101329.38
2022-09-03T02:52:06.484Z,101328.78
2022-09-03T02:53:09.858Z,101327.13
2022-09-03T02:54:14.984Z,101322.78
2022-09-03T02:55:22.070Z,101331.84
2022-09-03T02:56:28.067Z,101322.38
2022-09-03T02:57:31.182Z,101323.19
2022-09-03T02:58:33.335Z,101326.09
2022-09-03T02:59:36.652Z,101315.53
2022-09-03T03:00:40.242Z,101323.81
2022-09-03T03:01:43.397Z,101314.94
2022-09-03T03:02:48.765Z,101318.66
2022-09-03T03:03:52.414Z,101322.38
2022-09-03T03:04:55.672Z,101319.06
2022-09-03T03:06:01.705Z,101319.28
2022-09-03T03:07:03.835Z,101322.16
2022-09-03T03:08:06.915Z,101310.81
2022-09-03T03:09:09.013Z,101317.00
2022-09-03T03:10:12.640Z,101316.59
2022-09-03T03:11:18.408Z,101314.53
2022-09-03T03:12:21.560Z,101328.97
2022-09-03T03:13:23.839Z,101325.50
2022-09-03T03:14:26.974Z,101318.66
2022-09-03T03:15:29.030Z,101318.66
2022-09-03T03:16:33.613Z,101308.53
2022-09-03T03:17:35.699Z,101321.75
2022-09-03T03:18:39.351Z,101331.03
2022-09-03T03:19:41.453Z,101322.38
2022-09-03T03:20:45.637Z,101323.41
2022-09-03T03:21:47.777Z,101325.25
2022-09-03T03:22:50.978Z,101316.56
2022-09-03T03:23:53.140Z,101321.94
2022-09-03T03:24:57.782Z,101331.22
2022-09-03T03:26:01.782Z,101333.06
2022-09-03T03:27:07.249Z,101325.63
2022-09-03T03:28:09.876Z,101323.16
2022-09-03T03:29:17.938Z,101321.09
2022-09-03T03:30:20.994Z,101331.22
2022-09-03T03:31:24.592Z,101330.59
2022-09-03T03:32:28.395Z,101329.16
2022-09-03T03:33:31.438Z,101325.63
2022-09-03T03:34:33.558Z,101333.06
2022-09-03T03:35:37.537Z,101327.69
2022-09-03T03:36:41.125Z,101335.13
2022-09-03T03:37:43.200Z,101324.78
2022-09-03T03:38:46.730Z,101335.53
2022-09-03T03:39:49.011Z,101327.69
2022-09-03T03:40:52.610Z,101332.22
2022-09-03T03:41:54.664Z,101330.56
2022-09-03T03:42:59.480Z,101328.94
2022-09-03T03:44:03.727Z,101338.19
2022-09-03T03:45:07.739Z,101326.63
2022-09-03T03:46:10.815Z,101334.69
2022-09-03T03:47:16.908Z,101339.25
2022-09-03T03:48:20.412Z,101335.72
2022-09-03T03:49:23.505Z,101336.78
2022-09-03T03:50:25.714Z,101324.34
2022-09-03T03:51:30.449Z,101335.09
2022-09-03T03:52:32.627Z,101347.88
2022-09-03T03:53:37.038Z,101347.88
2022-09-03T03:54:39.141Z,101340.88
2022-09-03T03:55:42.239Z,101340.25
2022-09-03T03:56:44.271Z,101342.09
2022-09-03T03:57:49.998Z,101344.78
2022-09-03T03:58:52.850Z,101341.28
2022-09-03T03:59:55.903Z,101342.28
2022-09-03T04:01:05.420Z,101346.84
2022-09-03T04:02:08.513Z,101333.44
2022-09-03T04:03:10.574Z,101347.06
2022-09-03T04:04:15.092Z,101347.25
2022-09-03T04:05:17.086Z,101336.72
2022-09-03T04:06:26.265Z,101348.50
2022-09-03T04:07:28.368Z,101349.53
2022-09-03T04:08:31.865Z,101343.53
2022-09-03T04:09:34.235Z,101344.53
2022-09-03T04:10:37.500Z,101344.53
2022-09-03T04:11:39.628Z,101343.94
2022-09-03T04:12:43.394Z,101340.84
2022-09-03T04:13:46.884Z,101343.31
2022-09-03T04:14:49.992Z,101344.53
2022-09-03T04:15:52.724Z,101338.72
2022-09-03T04:16:56.957Z,101339.78
2022-09-03T04:17:59.282Z,101353.81
2022-09-03T04:19:02.337Z,101343.09
2022-09-03T04:20:07.379Z,101349.47
2022-09-03T04:21:13.061Z,101344.31
2022-09-03T04:22:15.876Z,101349.66
2022-09-03T04:23:19.063Z,101343.50
2022-09-03T04:24:21.230Z,101342.03
2022-09-03T04:25:25.283Z,101337.72
2022-09-03T04:26:31.447Z,101338.72
2022-09-03T04:27:34.658Z,101337.28
2022-09-03T04:28:37.154Z,101332.13
2022-09-03T04:29:40.241Z,101335.00
2022-09-03T04:30:42.336Z,101338.69
2022-09-03T04:32:01.728Z,101336.44
2022-09-03T04:33:04.938Z,101337.47
2022-09-03T04:34:07.028Z,101329.78
2022-09-03T04:35:11.632Z,101321.72
2022-09-03T04:36:17.371Z,101332.69
2022-09-03T04:37:20.622Z,101335.56
2022-09-03T04:38:23.190Z,101336.59
2022-09-03T04:39:26.791Z,101340.28
2022-09-03T04:40:28.949Z,101335.97
2022-09-03T04:41:32.789Z,101335.13
2022-09-03T04:42:34.873Z,101335.34
2022-09-03T04:43:38.815Z,101338.84
2022-09-03T04:44:41.264Z,101339.47
2022-09-03T04:45:44.416Z,101342.75
2022-09-03T04:46:47.960Z,101338.63
2022-09-03T04:47:58.152Z,101345.63
2022-09-03T04:49:01.901Z,101342.16
2022-09-03T04:50:04.568Z,101331.19
2022-09-03T04:51:10.977Z,101340.47
2022-09-03T04:52:13.061Z,101340.47
2022-09-03T04:53:16.141Z,101344.81
2022-09-03T04:54:18.258Z,101344.81
2022-09-03T04:55:21.380Z,101344.63
2022-09-03T04:56:25.307Z,101347.31
2022-09-03T04:57:34.401Z,101337.38
2022-09-03T04:58:36.502Z,101348.75
2022-09-03T04:59:42.767Z,101339.63
2022-09-03T05:00:44.854Z,101351.44
2022-09-03T05:01:48.056Z,101350.59
2022-09-03T05:02:51.923Z,101350.59
2022-09-03T05:03:55.312Z,101348.75
2022-09-03T05:04:57.457Z,101348.75
2022-09-03T05:06:00.504Z,101354.94
2022-09-03T05:07:05.147Z,101353.47
2022-09-03T05:08:07.365Z,101316.88
2022-09-03T05:09:10.452Z,101353.88
2022-09-03T05:10:20.303Z,101359.47
2022-09-03T05:11:24.342Z,101355.94
2022-09-03T05:12:26.613Z,101358.63
2022-09-03T05:13:29.619Z,101357.00
2022-09-03T05:14:31.713Z,101362.16
2022-09-03T05:15:34.816Z,101348.53
2022-09-03T05:16:36.906Z,101351.44
2022-09-03T05:17:40.186Z,101351.03
2022-09-03T05:18:42.486Z,101345.44
2022-09-03T05:19:45.535Z,101346.28
2022-09-03T05:20:47.619Z,101345.88
2022-09-03T05:21:50.741Z,101352.72
2022-09-03T05:22:54.258Z,101343.63
2022-09-03T05:23:57.410Z,101334.16
2022-09-03T05:24:59.476Z,101341.19
2022-09-03T05:26:03.959Z,101343.66
2022-09-03T05:27:06.008Z,101337.47
2022-09-03T05:28:09.478Z,101342.25
2022-09-03T05:29:11.556Z,101339.34
2022-09-03T05:30:15.141Z,101339.16
2022-09-03T05:31:19.650Z,101331.09
2022-09-03T05:32:22.719Z,101329.69
2022-09-03T05:33:24.944Z,101329.69
2022-09-03T05:34:28.069Z,101331.31
2022-09-03T05:35:30.490Z,101333.00
2022-09-03T05:36:35.979Z,101337.09
2022-09-03T05:37:38.267Z,101328.66
2022-09-03T05:38:43.381Z,101330.13
2022-09-03T05:39:45.515Z,101337.75
2022-09-03T05:40:48.600Z,101343.75
2022-09-03T05:41:52.370Z,101337.97
2022-09-03T05:42:59.842Z,101341.28
2022-09-03T05:44:02.321Z,101339.03
2022-09-03T05:45:10.919Z,101342.13
2022-09-03T05:46:15.464Z,101335.31
2022-09-03T05:47:18.666Z,101345.63
2022-09-03T05:48:20.753Z,101340.69
2022-09-03T05:49:24.518Z,101337.59
2022-09-03T05:50:26.708Z,101340.69
2022-09-03T05:51:31.041Z,101339.25
2022-09-03T05:52:33.165Z,101337.84
2022-09-03T05:53:38.008Z,101351.47
2022-09-03T05:54:42.545Z,101339.50
2022-09-03T05:55:44.703Z,101352.31
2022-09-03T05:56:47.858Z,101349.25
2022-09-03T05:57:52.247Z,101343.44
2022-09-03T05:58:57.726Z,101316.34
2022-09-03T06:00:01.536Z,101343.44
2022-09-03T06:01:10.513Z,101346.13
2022-09-03T06:02:13.634Z,101351.09
2022-09-03T06:03:16.323Z,101349.66
2022-09-03T06:04:19.914Z,101345.50
2022-09-03T06:05:21.984Z,101345.09
2022-09-03T06:06:26.082Z,101343.84
2022-09-03T06:07:29.516Z,101350.25
2022-09-03T06:08:31.585Z,101347.97
2022-09-03T06:09:34.646Z,101350.03
2022-09-03T06:10:41.023Z,101352.31
2022-09-03T06:11:45.538Z,101344.44
2022-09-03T06:12:51.521Z,101349.38
2022-09-03T06:13:55.024Z,101353.31
2022-09-03T06:14:57.111Z,101330.19
2022-09-03T06:16:01.664Z,101350.41
2022-09-03T06:17:04.495Z,101357.03
2022-09-03T06:18:07.920Z,101348.53
2022-09-03T06:19:11.354Z,101353.25
2022-09-03T06:20:14.531Z,101347.47
2022-09-03T06:21:16.675Z,101347.84
2022-09-03T06:22:19.756Z,101344.56
2022-09-03T06:23:22.070Z,101343.91
2022-09-03T06:24:28.394Z,101337.09
2022-09-03T06:25:31.868Z,101347.19
2022-09-03T06:26:36.706Z,101347.59
2022-09-03T06:27:38.808Z,101343.41
2022-09-03T06:28:44.447Z,101342.41
2022-09-03T06:29:47.533Z,101339.50
2022-09-03T06:30:49.642Z,101338.03
2022-09-03T06:31:52.758Z,101341.94
2022-09-03T06:32:54.844Z,101341.50
2022-09-03T06:34:03.361Z,101338.41
2022-09-03T06:35:08.787Z,101342.91
2022-09-03T06:36:13.390Z,101333.78
2022-09-03T06:37:16.494Z,101335.63
2022-09-03T06:38:19.168Z,101337.88
2022-09-03T06:39:22.268Z,101336.44
2022-09-03T06:40:25.976Z,101336.81
2022-09-03T06:41:33.091Z,101345.25
2022-09-03T06:42:36.652Z,101344.84
2022-09-03T06:43:42.357Z,101339.69
2022-09-03T06:44:45.303Z,101342.34
2022-09-03T06:45:56.120Z,101348.31
2022-09-03T06:47:01.485Z,101344.16
2022-09-03T06:48:03.851Z,101347.44
2022-09-03T06:49:08.429Z,101351.34
2022-09-03T06:50:10.571Z,101350.94
2022-09-03T06:51:15.362Z,101354.03
2022-09-03T06:52:18.436Z,101354.59
2022-09-03T06:53:20.498Z,101345.94
2022-09-03T06:54:25.251Z,101353.53
2022-09-03T06:55:27.410Z,101354.72
2022-09-03T06:56:36.091Z,101348.91
2022-09-03T06:57:42.649Z,101349.09
2022-09-03T06:58:48.743Z,101349.47
2022-09-03T06:59:50.783Z,101354.19
2022-09-03T07:00:54.334Z,101360.78
2022-09-03T07:01:59.217Z,101359.31
2022-09-03T07:03:03.093Z,101362.41
2022-09-03T07:04:06.848Z,101352.03
2022-09-03T07:05:09.340Z,101355.94
2022-09-03T07:06:14.748Z,101358.19
2022-09-03T07:07:18.618Z,101359.38
2022-09-03T07:08:20.672Z,101352.50
2022-09-03T07:09:23.817Z,101355.59
2022-09-03T07:10:27.446Z,101355.97
2022-09-03T07:11:33.506Z,101353.66
2022-09-03T07:12:37.506Z,101357.53
2022-09-03T07:13:45.005Z,101355.00
2022-09-03T07:14:47.469Z,101347.72
2022-09-03T07:16:01.169Z,101353.88
2022-09-03T07:17:04.281Z,101354.84
2022-09-03T07:18:06.437Z,101354.66
2022-09-03T07:19:09.984Z,101353.97
2022-09-03T07:20:12.082Z,101347.88
2022-09-03T07:21:17.724Z,101356.34
2022-09-03T07:22:20.821Z,101358.59
2022-09-03T07:23:22.930Z,101357.09
2022-09-03T07:24:27.750Z,101361.22
2022-09-03T07:25:30.930Z,101351.84
2022-09-03T07:26:36.187Z,101356.56
2022-09-03T07:27:38.360Z,101357.16
2022-09-03T07:28:45.999Z,101357.31
2022-09-03T07:29:48.026Z,101355.00
2022-09-03T07:30:51.185Z,101353.47
2022-09-03T07:31:54.340Z,101350.91
2022-09-03T07:32:56.496Z,101356.69
2022-09-03T07:34:00.316Z,101356.28
2022-09-03T07:35:02.548Z,101357.47
2022-09-03T07:36:08.685Z,101354.06
2022-09-03T07:37:11.792Z,101357.13
2022-09-03T07:38:17.740Z,101358.34
2022-09-03T07:39:21.371Z,101358.94
2022-09-03T07:40:23.515Z,101350.97
2022-09-03T07:41:28.896Z,101360.47
2022-09-03T07:42:31.308Z,101354.41
2022-09-03T07:43:37.994Z,101351.25
2022-09-03T07:44:41.556Z,101355.09
2022-09-03T07:45:51.845Z,101354.69
2022-09-03T07:46:55.778Z,101357.72
2022-09-03T07:47:57.953Z,101354.34
2022-09-03T07:49:02.859Z,101355.50
2022-09-03T07:50:05.610Z,101348.59
2022-09-03T07:51:09.619Z,101349.78
2022-09-03T07:52:11.990Z,101355.31
2022-09-03T07:53:18.045Z,101358.34
2022-09-03T07:54:21.834Z,101357.69
2022-09-03T07:55:24.916Z,101352.63
2022-09-03T07:56:31.158Z,101360.03
2022-09-03T07:57:33.231Z,101360.16
2022-09-03T07:58:37.914Z,101357.81
2022-09-03T07:59:41.982Z,101357.09
2022-09-03T08:00:45.112Z,101349.81
2022-09-03T08:01:47.305Z,101350.34
2022-09-03T08:02:50.379Z,101355.25
2022-09-03T08:03:56.131Z,101355.38
2022-09-03T08:04:59.287Z,101356.56
2022-09-03T08:06:02.319Z,101353.63
2022-09-03T08:07:05.416Z,101355.13
2022-09-03T08:08:07.831Z,101354.41
2022-09-03T08:09:13.733Z,101357.47
2022-09-03T08:10:16.612Z,101354.09
2022-09-03T08:11:22.046Z,101356.06
2022-09-03T08:12:24.272Z,101357.25
2022-09-03T08:13:27.311Z,101354.66
2022-09-03T08:14:31.729Z,101343.94
2022-09-03T08:15:37.417Z,101349.47
2022-09-03T08:16:41.964Z,101347.91
2022-09-03T08:17:45.445Z,101345.31
2022-09-03T08:18:47.667Z,101344.59
2022-09-03T08:19:51.110Z,101349.28
2022-09-03T08:20:53.224Z,101344.81
2022-09-03T08:21:56.354Z,101335.13
2022-09-03T08:23:01.812Z,101340.91
2022-09-03T08:24:05.810Z,101340.53
2022-09-03T08:25:08.370Z,101343.31
2022-09-03T08:26:19.332Z,101348.34
2022-09-03T08:27:26.173Z,101346.56
2022-09-03T08:28:28.644Z,101344.78
2022-09-03T08:29:31.746Z,101350.06
2022-09-03T08:30:36.346Z,101347.44
2022-09-03T08:31:39.472Z,101341.03
2022-09-03T08:32:41.746Z,101347.38
2022-09-03T08:33:46.272Z,101344.25
2022-09-03T08:34:48.488Z,101340.56
2022-09-03T08:35:54.400Z,101343.69
2022-09-03T08:36:59.045Z,101338.13
2022-09-03T08:38:05.406Z,101335.84
2022-09-03T08:39:11.537Z,101343.56
2022-09-03T08:40:14.847Z,101340.09
2022-09-03T08:41:30.210Z,101336.97
2022-09-03T08:42:46.480Z,101343.88
2022-09-03T08:44:05.244Z,101336.06
2022-09-03T08:45:16.376Z,101337.44
2022-09-03T08:46:22.043Z,101331.25
2022-09-03T08:47:30.203Z,101336.81
2022-09-03T08:48:33.811Z,101335.19
2022-09-03T08:49:46.307Z,101340.19
2022-09-03T08:50:56.110Z,101340.75
2022-09-03T08:52:04.212Z,101341.34
2022-09-03T08:53:11.509Z,101348.41
2022-09-03T08:54:15.255Z,101338.09
2022-09-03T08:55:22.987Z,101340.31
2022-09-03T08:56:29.949Z,101346.06
2022-09-03T08:57:39.865Z,101346.38
2022-09-03T08:58:44.015Z,101342.09
2022-09-03T08:59:55.018Z,101342.44
2022-09-03T09:01:04.809Z,101348.75
2022-09-03T09:02:26.347Z,101343.38
2022-09-03T09:03:42.521Z,101343.69
2022-09-03T09:05:00.187Z,101347.81
2022-09-03T09:06:12.748Z,101347.31
2022-09-03T09:07:22.285Z,101348.63
2022-09-03T09:08:33.364Z,101339.22
2022-09-03T09:09:48.858Z,101352.84
2022-09-03T09:11:01.805Z,101351.25
2022-09-03T09:12:17.543Z,101346.41
2022-09-03T09:13:28.229Z,101351.31
2022-09-03T09:14:36.309Z,101343.72
2022-09-03T09:15:51.695Z,101337.81
2022-09-03T09:17:03.261Z,101341.06
2022-09-03T09:18:16.672Z,101343.78
2022-09-03T09:19:33.393Z,101337.59
2022-09-03T09:20:43.062Z,101344.41
2022-09-03T09:21:49.274Z,101338.47
2022-09-03T09:22:57.643Z,101341.50
2022-09-03T09:24:04.673Z,101341.81
2022-09-03T09:25:14.381Z,101334.47
2022-09-03T09:26:18.171Z,101345.09
2022-09-03T09:27:21.161Z,101342.09
2022-09-03T09:28:26.262Z,101339.97
2022-09-03T09:29:32.319Z,101339.69
2022-09-03T09:30:36.000Z,101340.28
2022-09-03T09:31:38.888Z,101338.13
2022-09-03T09:32:41.973Z,101337.84
2022-09-03T09:33:45.494Z,101332.16
2022-09-03T09:34:52.039Z,101336.25
2022-09-03T09:35:54.851Z,101338.72
2022-09-03T09:36:57.846Z,101331.72
2022-09-03T09:38:00.375Z,101328.47
2022-09-03T09:39:10.182Z,101340.50
2022-09-03T09:40:28.077Z,101336.41
2022-09-03T09:41:31.104Z,101332.38
2022-09-03T09:42:33.227Z,101330.22
2022-09-03T09:43:36.531Z,101328.03
2022-09-03T09:44:40.542Z,101331.06
2022-09-03T09:45:45.953Z,101339.47
2022-09-03T09:46:52.670Z,101332.47
2022-09-03T09:47:58.413Z,101332.72
2022-09-03T09:49:02.983Z,101326.44
2022-09-03T09:50:20.237Z,101324.25
2022-09-03T09:51:31.127Z,101331.03
2022-09-03T09:52:33.640Z,101334.53
2022-09-03T09:53:36.945Z,101327.94
2022-09-03T09:54:40.226Z,101315.13
2022-09-03T09:55:54.518Z,101318.34
2022-09-03T09:57:00.906Z,101322.38
2022-09-03T09:58:14.029Z,101320.19
2022-09-03T09:59:20.548Z,101315.28
2022-09-03T10:00:22.656Z,101318.50
2022-09-03T10:01:30.300Z,101329.41
2022-09-03T10:02:36.870Z,101314.13
2022-09-03T10:03:49.091Z,101314.13
2022-09-03T10:04:54.105Z,101310.63
2022-09-03T10:06:24.886Z,101313.88
2022-09-03T10:07:30.301Z,101310.63
2022-09-03T10:08:32.393Z,101313.59
2022-09-03T10:09:35.330Z,101311.09
2022-09-03T10:10:49.777Z,101312.47
2022-09-03T10:12:04.340Z,101309.19
2022-09-03T10:13:11.200Z,101307.28
2022-09-03T10:14:23.293Z,101311.91
2022-09-03T10:15:29.499Z,101309.69
2022-09-03T10:16:37.185Z,101322.19
2022-09-03T10:17:53.593Z,101305.88
2022-09-03T10:19:05.918Z,101309.44
2022-09-03T10:20:31.351Z,101307.03
2022-09-03T10:21:43.172Z,101301.38
2022-09-03T10:22:56.990Z,101321.28
2022-09-03T10:24:07.244Z,101305.34
2022-09-03T10:25:10.395Z,101307.88
2022-09-03T10:26:16.967Z,101305.25
2022-09-03T10:27:19.910Z,101310.75
2022-09-03T10:28:29.474Z,101315.72
2022-09-03T10:29:32.983Z,101306.50
2022-09-03T10:30:47.635Z,101303.00
2022-09-03T10:32:03.241Z,101298.94
2022-09-03T10:33:13.727Z,101308.81
2022-09-03T10:34:23.773Z,101311.78
2022-09-03T10:35:31.145Z,101311.78
2022-09-03T10:36:40.941Z,101297.66
2022-09-03T10:37:47.630Z,101294.09
2022-09-03T10:39:00.175Z,101297.34
2022-09-03T10:40:17.862Z,101301.16
2022-09-03T10:41:33.937Z,101293.56
2022-09-03T10:42:46.608Z,101290.59
2022-09-03T10:44:11.269Z,101288.50
2022-09-03T10:45:19.947Z,101289.09
2022-09-03T10:46:27.067Z,101297.00
2022-09-03T10:47:54.345Z,101295.41
2022-09-03T10:49:19.732Z,101291.06
2022-09-03T10:50:26.418Z,101288.91
2022-09-03T10:51:36.357Z,101279.13
2022-09-03T10:52:54.205Z,101276.66
2022-09-03T21:30:15.201Z,101357.34
2022-09-03T21:31:22.133Z,101365.44
2022-09-03T21:32:34.791Z,101362.97
2022-09-03T21:33:40.518Z,101363.19
2022-09-03T21:34:50.590Z,101366.91
2022-09-03T21:36:01.018Z,101361.75
2022-09-03T21:37:04.786Z,101374.41
2022-09-03T21:38:09.899Z,101370.91
2022-09-03T21:39:19.544Z,101379.22
2022-09-03T21:40:29.200Z,101374.03
2022-09-03T21:41:36.642Z,101388.59
2022-09-03T21:42:44.795Z,101371.56
2022-09-03T21:43:55.547Z,101370.97
2022-09-03T21:45:01.200Z,101382.81
2022-09-03T21:46:09.597Z,101372.47
2022-09-03T21:47:14.985Z,101379.28
2022-09-03T21:48:21.962Z,101378.47
2022-09-03T21:49:30.932Z,101382.19
2022-09-03T21:50:45.396Z,101372.47
2022-09-03T21:51:55.586Z,101380.56
2022-09-03T21:53:03.001Z,101374.56
2022-09-03T21:54:10.410Z,101352.28
2022-09-03T21:55:21.279Z,101369.16
2022-09-03T21:56:52.044Z,101371.88
2022-09-03T21:58:09.640Z,101376.41
2022-09-03T21:59:23.177Z,101373.94
2022-09-03T22:00:32.705Z,101387.44
2022-09-03T22:01:50.498Z,101380.63
2022-09-03T22:02:56.842Z,101375.25
2022-09-03T22:03:59.245Z,101380.88
2022-09-03T22:05:04.365Z,101378.16
2022-09-03T22:06:12.943Z,101376.72
2022-09-03T22:07:24.200Z,101381.88
2022-09-03T22:08:37.130Z,101379.19
2022-09-03T22:09:46.595Z,101372.16
2022-09-03T22:10:59.355Z,101375.69
2022-09-03T22:12:08.759Z,101379.41
2022-09-03T22:13:18.105Z,101379.41
2022-09-03T22:14:20.941Z,101389.41
2022-09-03T22:15:24.062Z,101380.47
2022-09-03T22:16:32.267Z,101383.19
2022-09-03T22:17:47.010Z,101386.91
2022-09-03T22:18:50.275Z,101384.44
2022-09-03T22:19:53.281Z,101382.78
2022-09-03T22:21:02.866Z,101388.19
2022-09-03T22:22:13.139Z,101384.88
2022-09-03T22:23:21.134Z,101377.00
2022-09-03T22:24:36.011Z,101386.16
2022-09-03T22:25:44.265Z,101391.78
2022-09-03T22:26:56.586Z,101378.50
2022-09-03T22:28:06.550Z,101378.72
2022-09-03T22:29:15.470Z,101378.72
2022-09-03T22:30:21.402Z,101374.63
2022-09-03T22:31:36.333Z,101380.00
2022-09-03T22:32:53.689Z,101374.84
2022-09-03T22:34:04.275Z,101379.63
2022-09-03T22:35:24.240Z,101375.28
2022-09-03T22:36:34.069Z,101376.31
2022-09-03T22:37:51.448Z,101373.84
2022-09-03T22:39:11.775Z,101377.59
2022-09-03T22:40:24.675Z,101377.81
2022-09-03T22:41:53.123Z,101378.84
2022-09-03T22:43:14.870Z,101378.25
2022-09-03T22:44:33.140Z,101374.75
2022-09-03T22:45:51.251Z,101378.47
2022-09-03T22:47:09.121Z,101379.53
2022-09-03T22:48:27.707Z,101372.47
2022-09-03T22:49:39.153Z,101378.09
2022-09-03T22:50:48.952Z,101378.09
2022-09-03T22:52:03.508Z,101389.91
2022-09-03T22:53:20.810Z,101385.59
2022-09-03T22:54:42.699Z,101371.50
2022-09-03T22:55:54.073Z,101386.00
2022-09-03T22:56:59.031Z,101383.31
2022-09-03T22:58:05.413Z,101376.28
2022-09-03T22:59:15.020Z,101375.44
2022-09-03T23:00:17.820Z,101379.41
2022-09-03T23:01:25.914Z,101386.44
2022-09-03T23:02:30.159Z,101385.63
2022-09-03T23:03:42.116Z,101383.16
2022-09-03T23:04:50.971Z,101387.69
2022-09-03T23:06:00.347Z,101385.19
2022-09-03T23:07:11.486Z,101393.50
2022-09-03T23:08:18.952Z,101388.34
2022-09-03T23:09:24.807Z,101385.66
2022-09-03T23:10:31.971Z,101387.72
2022-09-03T23:11:42.180Z,101391.47
2022-09-03T23:12:47.990Z,101392.53
2022-09-03T23:13:56.053Z,101399.56
2022-09-03T23:15:01.347Z,101376.41
2022-09-03T23:16:11.731Z,101389.22
2022-09-03T23:17:20.300Z,101384.06
2022-09-03T23:18:27.116Z,101409.13
2022-09-03T23:19:38.851Z,101396.69
2022-09-03T23:20:45.057Z,101388.63
2022-09-03T23:21:55.816Z,101386.97